createdAt,value
2023-02-17T00:03:35.070Z,22.20
2023-02-17T00:08:26.799Z,22.47
2023-02-17T00:13:18.448Z,23.67
2023-02-17T00:18:10.119Z,24.10
2023-02-17T00:23:01.822Z,24.83
2023-02-17T00:27:53.534Z,21.40
2023-02-17T00:32:45.250Z,19.60
2023-02-17T00:37:36.932Z,19.70
2023-02-17T00:42:28.618Z,20.33
2023-02-17T00:47:20.391Z,25.53
2023-02-17T00:52:12.062Z,20.90
2023-02-17T00:57:03.794Z,22.27
2023-02-17T01:01:55.625Z,22.50
2023-02-17T01:06:47.483Z,21.87
2023-02-17T01:11:41.172Z,21.10
2023-02-17T01:16:38.083Z,23.50
2023-02-17T01:21:32.088Z,19.47
2023-02-17T01:26:27.890Z,24.20
2023-02-17T01:31:21.614Z,24.17
2023-02-17T01:36:17.701Z,19.53
2023-02-17T01:41:10.180Z,14.50
2023-02-17T01:46:08.154Z,14.80
2023-02-17T01:51:05.383Z,15.70
2023-02-17T01:55:57.846Z,16.07
2023-02-17T02:00:53.129Z,17.23
2023-02-17T02:05:45.909Z,16.13
2023-02-17T02:10:38.135Z,16.30
2023-02-17T02:15:47.874Z,14.23
2023-02-17T02:21:31.463Z,15.43
2023-02-17T02:26:28.892Z,13.77
2023-02-17T02:31:50.458Z,13.30
2023-02-17T02:36:58.947Z,11.93
2023-02-17T02:41:57.999Z,10.87
2023-02-17T02:47:03.140Z,9.60
2023-02-17T02:52:17.027Z,10.97
2023-02-17T02:57:44.976Z,10.67
2023-02-17T03:02:59.363Z,9.73
2023-02-17T03:07:58.366Z,10.70
2023-02-17T03:12:50.617Z,10.93
2023-02-17T03:17:42.321Z,10.83
2023-02-17T03:22:40.617Z,9.37
2023-02-17T03:27:32.409Z,8.10
2023-02-17T03:32:24.505Z,10.87
2023-02-17T03:37:16.731Z,8.87
2023-02-17T03:42:08.400Z,8.37
2023-02-17T03:47:00.151Z,8.13
2023-02-17T03:51:51.863Z,8.27
2023-02-17T03:56:43.543Z,8.20
2023-02-17T04:01:35.256Z,9.57
2023-02-17T04:06:27.259Z,7.80
2023-02-17T04:11:18.988Z,8.00
2023-02-17T04:16:12.257Z,9.23
2023-02-17T04:21:06.108Z,7.03
2023-02-17T04:25:57.823Z,7.43
2023-02-17T04:30:50.950Z,10.37
2023-02-17T04:35:43.015Z,9.83
2023-02-17T04:40:34.751Z,9.93
2023-02-17T04:45:26.546Z,7.00
2023-02-17T04:50:20.878Z,11.03
2023-02-17T04:55:12.690Z,8.80
2023-02-17T05:05:16.284Z,8.83
2023-02-17T05:10:10.474Z,10.17
2023-02-17T05:15:04.215Z,12.73
2023-02-17T05:19:59.929Z,10.63
2023-02-17T05:30:05.281Z,10.43
2023-02-17T05:34:58.058Z,10.20
2023-02-17T05:39:51.734Z,9.77
2023-02-17T05:49:49.824Z,11.13
2023-02-17T05:54:49.716Z,10.73
2023-02-17T06:10:03.058Z,8.10
2023-02-17T06:14:55.895Z,12.57
2023-02-17T06:55:31.816Z,11.97
2023-02-17T07:05:30.000Z,12.20
2023-02-17T07:20:37.770Z,9.57
2023-02-17T08:47:51.985Z,6.80
2023-02-17T09:13:17.378Z,8.37
2023-02-17T09:33:29.921Z,9.27
2023-02-17T13:11:32.180Z,9.37
2023-02-17T16:56:53.180Z,4.17
2023-02-17T19:14:57.791Z,4.80
2023-02-17T21:18:52.904Z,8.80
2023-02-17T21:59:49.089Z,7.67
2023-02-17T22:35:25.906Z,7.47
2023-02-17T23:41:45.836Z,2.60
